createdAt,value
2022-08-20T00:01:11.669Z,98808.25
2022-08-20T00:03:41.556Z,98801.88
2022-08-20T00:06:18.426Z,98809.88
2022-08-20T00:08:46.511Z,98808.84
2022-08-20T00:11:17.161Z,98808.66
2022-08-20T00:13:48.060Z,98806.19
2022-08-20T00:16:16.535Z,98810.69
2022-08-20T00:18:44.231Z,98811.09
2022-08-20T00:21:18.048Z,98812.13
2022-08-20T00:23:48.645Z,98798.00
2022-08-20T00:26:16.528Z,98808.00
2022-08-20T00:28:43.526Z,98803.91
2022-08-20T00:31:12.052Z,98809.22
2022-08-20T00:33:40.095Z,98811.69
2022-08-20T00:36:09.975Z,98813.72
2022-08-20T00:38:38.984Z,98806.75
2022-08-20T00:41:07.484Z,98813.88
2022-08-20T00:43:43.734Z,98818.41
2022-08-20T00:46:19.050Z,98812.66
2022-08-20T00:48:48.475Z,98823.66
2022-08-20T00:51:38.544Z,98819.69
2022-08-20T00:54:46.056Z,98825.06
2022-08-20T00:57:16.960Z,98820.72
2022-08-20T00:59:44.683Z,98820.31
2022-08-20T01:02:14.174Z,98820.88
2022-08-20T01:04:43.946Z,98818.41
2022-08-20T01:07:11.661Z,98821.72
2022-08-20T01:09:58.038Z,98821.31
2022-08-20T01:12:27.475Z,98830.13
2022-08-20T01:14:55.632Z,98838.09
2022-08-20T01:17:25.128Z,98839.50
2022-08-20T01:19:56.369Z,98833.16
2022-08-20T01:22:58.041Z,98834.84
2022-08-20T01:25:39.345Z,98836.78
2022-08-20T01:28:06.869Z,98841.28
2022-08-20T01:30:34.360Z,98834.94
2022-08-20T01:33:02.660Z,98844.88
2022-08-20T01:35:31.834Z,98835.03
2022-08-20T01:37:58.800Z,98834.41
2022-08-20T01:41:12.250Z,98832.97
2022-08-20T01:43:40.718Z,98831.69
2022-08-20T01:46:10.304Z,98837.25
2022-08-20T01:48:38.833Z,98838.28
2022-08-20T01:51:19.265Z,98847.78
2022-08-20T01:53:50.587Z,98851.88
2022-08-20T01:56:22.042Z,98857.44
2022-08-20T01:58:58.813Z,98849.84
2022-08-20T02:01:40.898Z,98846.63
2022-08-20T02:04:15.587Z,98851.34
2022-08-20T02:06:56.195Z,98854.84
2022-08-20T02:09:32.306Z,98854.06
2022-08-20T02:11:59.410Z,98857.19
2022-08-20T02:14:28.864Z,98854.59
2022-08-20T02:16:58.955Z,98858.91
2022-08-20T02:19:39.213Z,98854.31
2022-08-20T02:22:17.497Z,98859.91
2022-08-20T02:24:44.686Z,98849.53
2022-08-20T02:27:11.953Z,98852.13
2022-08-20T02:29:39.813Z,98853.16
2022-08-20T02:32:24.457Z,98853.16
2022-08-20T02:34:55.231Z,98856.59
2022-08-20T02:37:22.208Z,98854.22
2022-08-20T02:39:49.132Z,98864.06
2022-08-20T02:42:17.478Z,98861.72
2022-08-20T02:44:44.438Z,98859.13
2022-08-20T02:47:11.400Z,98848.94
2022-08-20T02:49:38.378Z,98849.16
2022-08-20T02:52:05.568Z,98852.47
2022-08-20T02:54:32.611Z,98855.16
2022-08-20T02:56:59.463Z,98856.84
2022-08-20T02:59:27.371Z,98849.59
2022-08-20T03:01:59.519Z,98851.66
2022-08-20T03:04:28.581Z,98849.44
2022-08-20T03:06:55.788Z,98856.91
2022-08-20T03:09:22.490Z,98849.88
2022-08-20T03:11:49.488Z,98855.19
2022-08-20T03:14:16.852Z,98861.16
2022-08-20T03:16:43.720Z,98862.97
2022-08-20T03:19:10.649Z,98860.66
2022-08-20T03:21:37.486Z,98862.09
2022-08-20T03:24:05.177Z,98862.78
2022-08-20T03:26:32.218Z,98857.91
2022-08-20T03:28:59.287Z,98862.44
2022-08-20T03:31:26.445Z,98862.09
2022-08-20T03:33:53.959Z,98863.63
2022-08-20T03:36:28.074Z,98863.06
2022-08-20T03:39:01.621Z,98860.41
2022-08-20T03:41:29.366Z,98856.97
2022-08-20T03:43:56.254Z,98858.88
2022-08-20T03:46:24.097Z,98863.25
2022-08-20T03:48:59.607Z,98860.06
2022-08-20T03:51:29.149Z,98872.03
2022-08-20T03:53:56.735Z,98877.59
2022-08-20T03:56:23.703Z,98874.81
2022-08-20T03:58:50.636Z,98875.47
2022-08-20T04:01:37.046Z,98870.50
2022-08-20T04:04:04.629Z,98865.53
2022-08-20T04:06:31.478Z,98866.34
2022-08-20T04:08:58.280Z,98872.03
2022-08-20T04:11:25.343Z,98854.50
2022-08-20T04:13:52.279Z,98864.13
2022-08-20T04:16:19.991Z,98862.09
2022-08-20T04:19:01.971Z,98863.81
2022-08-20T04:21:33.158Z,98870.75
2022-08-20T04:24:01.821Z,98870.13
2022-08-20T04:26:28.610Z,98871.13
2022-08-20T04:28:56.099Z,98868.38
2022-08-20T04:31:33.804Z,98876.75
2022-08-20T04:34:02.175Z,98872.66
2022-08-20T04:36:29.805Z,98872.56
2022-08-20T04:38:56.848Z,98874.19
2022-08-20T04:41:24.545Z,98879.25
2022-08-20T04:43:56.909Z,98882.16
2022-08-20T04:46:26.135Z,98886.13
2022-08-20T04:48:54.166Z,98888.28
2022-08-20T04:51:22.932Z,98887.22
2022-08-20T04:53:53.223Z,98885.63
2022-08-20T04:56:24.162Z,98885.94
2022-08-20T04:58:52.547Z,98885.00
2022-08-20T05:01:19.980Z,98876.59
2022-08-20T05:03:49.859Z,98878.84
2022-08-20T05:06:18.484Z,98884.22
2022-08-20T05:08:45.669Z,98887.06
2022-08-20T05:11:33.945Z,98886.88
2022-08-20T05:14:01.467Z,98895.00
2022-08-20T05:16:28.800Z,98898.34
2022-08-20T05:18:55.677Z,98891.78
2022-08-20T05:21:22.675Z,98893.03
2022-08-20T05:23:49.680Z,98899.22
2022-08-20T05:26:17.262Z,98903.72
2022-08-20T05:28:58.743Z,98904.91
2022-08-20T05:31:32.093Z,98902.13
2022-08-20T05:34:11.054Z,98905.03
2022-08-20T05:36:40.279Z,98904.88
2022-08-20T05:39:07.532Z,98904.72
2022-08-20T05:41:34.279Z,98899.81
2022-08-20T05:44:01.655Z,98901.19
2022-08-20T05:46:32.291Z,98915.16
2022-08-20T05:49:02.137Z,98921.94
2022-08-20T05:51:30.187Z,98928.75
2022-08-20T05:53:59.432Z,98929.19
2022-08-20T05:56:30.944Z,98929.25
2022-08-20T05:59:01.951Z,98928.88
2022-08-20T06:01:29.531Z,98930.16
2022-08-20T06:04:14.960Z,98923.03
2022-08-20T06:06:45.525Z,98923.69
2022-08-20T06:09:14.763Z,98929.38
2022-08-20T06:11:41.752Z,98940.72
2022-08-20T06:14:08.875Z,98939.28
2022-08-20T06:16:37.433Z,98933.16
2022-08-20T06:19:05.825Z,98937.88
2022-08-20T06:21:33.013Z,98949.66
2022-08-20T06:24:02.461Z,98940.22
2022-08-20T06:26:31.171Z,98949.47
2022-08-20T06:29:03.101Z,98949.50
2022-08-20T06:31:30.017Z,98942.78
2022-08-20T06:33:57.633Z,98941.97
2022-08-20T06:36:25.218Z,98944.44
2022-08-20T06:38:52.235Z,98937.91
2022-08-20T06:41:19.128Z,98946.53
2022-08-20T06:43:47.017Z,98944.75
2022-08-20T06:46:14.911Z,98940.63
2022-08-20T06:48:42.224Z,98949.72
2022-08-20T06:51:10.176Z,98947.44
2022-08-20T06:53:37.357Z,98945.81
2022-08-20T06:56:04.717Z,98942.16
2022-08-20T06:58:37.147Z,98942.75
2022-08-20T07:01:11.078Z,98939.72
2022-08-20T07:03:54.713Z,98942.59
2022-08-20T07:06:25.940Z,98947.78
2022-08-20T07:08:54.103Z,98943.06
2022-08-20T07:11:27.371Z,98931.59
2022-08-20T07:13:56.901Z,98932.41
2022-08-20T07:16:24.360Z,98943.03
2022-08-20T07:18:51.394Z,98944.47
2022-08-20T07:21:19.164Z,98940.56
2022-08-20T07:23:46.102Z,98943.38
2022-08-20T07:26:13.723Z,98945.19
2022-08-20T07:28:40.737Z,98949.88
2022-08-20T07:31:27.335Z,98951.13
2022-08-20T07:33:58.685Z,98952.47
2022-08-20T07:36:27.535Z,98949.19
2022-08-20T07:38:55.002Z,98953.81
2022-08-20T07:41:24.331Z,98954.66
2022-08-20T07:43:51.228Z,98952.66
2022-08-20T07:46:21.811Z,98963.69
2022-08-20T07:48:50.657Z,98966.16
2022-08-20T07:51:19.991Z,98966.78
2022-08-20T07:53:47.871Z,98960.81
2022-08-20T07:56:17.962Z,98968.19
2022-08-20T07:58:50.626Z,98969.44
2022-08-20T08:01:26.262Z,98981.75
2022-08-20T08:03:53.694Z,98976.72
2022-08-20T08:06:28.547Z,98978.94
2022-08-20T08:08:59.039Z,98983.13
2022-08-20T08:11:25.893Z,98982.53
2022-08-20T08:13:53.202Z,98986.78
2022-08-20T08:16:21.640Z,98981.00
2022-08-20T08:18:51.070Z,98981.66
2022-08-20T08:21:22.553Z,98987.41
2022-08-20T08:23:50.391Z,98974.31
2022-08-20T08:26:19.017Z,98978.38
2022-08-20T08:28:50.823Z,98985.38
2022-08-20T08:31:18.076Z,98990.97
2022-08-20T08:33:45.058Z,98988.13
2022-08-20T08:36:15.358Z,98991.00
2022-08-20T08:38:44.610Z,98995.38
2022-08-20T08:41:29.954Z,99001.16
2022-08-20T08:44:05.134Z,99006.88
2022-08-20T08:46:33.666Z,99013.63
2022-08-20T08:49:02.031Z,99010.00
2022-08-20T08:51:38.372Z,99016.13
2022-08-20T08:54:07.274Z,99006.09
2022-08-20T08:56:35.970Z,99009.56
2022-08-20T08:59:10.569Z,99010.81
2022-08-20T09:01:55.615Z,99010.00
2022-08-20T09:04:35.229Z,99014.69
2022-08-20T09:07:03.504Z,99009.38
2022-08-20T09:09:34.198Z,99016.56
2022-08-20T09:12:12.163Z,99011.63
2022-08-20T09:14:39.525Z,99012.88
2022-08-20T09:17:06.415Z,99007.53
2022-08-20T09:19:34.233Z,99011.44
2022-08-20T09:22:08.237Z,99014.53
2022-08-20T09:24:35.131Z,99026.41
2022-08-20T09:27:01.936Z,99012.41
2022-08-20T09:29:29.699Z,99019.41
2022-08-20T09:32:07.029Z,99024.78
2022-08-20T09:34:42.379Z,99029.31
2022-08-20T09:37:09.525Z,99028.06
2022-08-20T09:39:37.211Z,99021.47
2022-08-20T09:42:12.098Z,99025.19
2022-08-20T09:44:39.661Z,99020.28
2022-08-20T09:47:06.748Z,99028.66
2022-08-20T09:49:33.969Z,99021.88
2022-08-20T09:52:01.765Z,99022.41
2022-08-20T09:54:31.618Z,99023.81
2022-08-20T09:56:59.136Z,99020.47
2022-08-20T09:59:26.434Z,99018.34
2022-08-20T10:01:53.183Z,99005.59
2022-08-20T10:04:20.413Z,99015.19
2022-08-20T10:06:47.518Z,99014.47
2022-08-20T10:09:14.789Z,99013.00
2022-08-20T10:11:42.077Z,99007.84
2022-08-20T10:14:11.628Z,99001.25
2022-08-20T10:16:38.745Z,98995.91
2022-08-20T10:19:06.031Z,99005.34
2022-08-20T10:21:37.999Z,99004.59
2022-08-20T10:24:05.776Z,99000.81
2022-08-20T10:26:38.328Z,98997.41
2022-08-20T10:29:05.188Z,99005.06
2022-08-20T10:31:32.023Z,99005.63
2022-08-20T10:33:59.072Z,99000.22
2022-08-20T10:36:26.015Z,98991.38
2022-08-20T10:38:53.502Z,98991.09
2022-08-20T10:41:20.439Z,98988.06
2022-08-20T10:43:47.575Z,98994.09
2022-08-20T10:46:14.699Z,98995.47
2022-08-20T10:48:41.565Z,98998.91
2022-08-20T10:51:08.502Z,98993.47
2022-08-20T10:53:35.275Z,98986.28
2022-08-20T10:56:02.374Z,98997.25
2022-08-20T10:58:39.556Z,98992.28
2022-08-20T11:01:07.978Z,98991.66
2022-08-20T11:03:35.725Z,98983.38
2022-08-20T11:06:02.758Z,98983.16
2022-08-20T11:08:33.777Z,98985.41
2022-08-20T11:11:01.909Z,98995.47
2022-08-20T11:13:28.920Z,98985.06
2022-08-20T11:15:56.213Z,98996.81
2022-08-20T11:18:22.926Z,98990.13
2022-08-20T11:20:49.959Z,98987.81
2022-08-20T11:23:16.745Z,98980.56
2022-08-20T11:25:43.997Z,98985.25
2022-08-20T11:28:11.143Z,98982.09
2022-08-20T11:30:39.474Z,98972.63
2022-08-20T11:33:06.646Z,98975.19
2022-08-20T11:35:48.948Z,98971.69
2022-08-20T11:38:17.312Z,98963.25
2022-08-20T11:40:44.102Z,98968.31
2022-08-20T11:43:15.518Z,98960.25
2022-08-20T11:45:44.636Z,98961.28
2022-08-20T11:48:11.445Z,98954.22
2022-08-20T11:50:38.278Z,98949.75
2022-08-20T11:53:05.273Z,98950.09
2022-08-20T11:55:34.634Z,98952.34
2022-08-20T11:58:01.966Z,98956.63
2022-08-20T12:00:32.551Z,98947.59
2022-08-20T12:03:01.271Z,98944.22
2022-08-20T12:05:30.281Z,98945.50
2022-08-20T12:07:58.234Z,98946.34
2022-08-20T12:10:27.094Z,98949.63
2022-08-20T12:12:54.599Z,98942.28
2022-08-20T12:15:21.383Z,98945.25
2022-08-20T12:17:48.222Z,98943.63
2022-08-20T12:20:15.814Z,98940.84
2022-08-20T12:22:44.080Z,98932.41
2022-08-20T12:25:11.798Z,98934.63
2022-08-20T12:27:39.112Z,98934.44
2022-08-20T12:30:10.556Z,98931.22
2022-08-20T12:32:37.874Z,98931.38
2022-08-20T12:35:06.480Z,98930.38
2022-08-20T12:37:34.579Z,98926.81
2022-08-20T12:40:04.748Z,98924.06
2022-08-20T12:42:31.908Z,98933.13
2022-08-20T12:44:59.963Z,98934.31
2022-08-20T12:47:31.110Z,98928.94
2022-08-20T12:50:13.232Z,98942.38
2022-08-20T12:52:40.867Z,98942.06
2022-08-20T12:55:09.470Z,98957.19
2022-08-20T12:57:45.651Z,98956.84
2022-08-20T13:00:23.732Z,98950.84
2022-08-20T13:02:55.920Z,98952.00
2022-08-20T13:05:23.673Z,98956.59
2022-08-20T13:07:50.741Z,98951.97
2022-08-20T13:10:22.689Z,98949.44
2022-08-20T13:12:50.422Z,98948.13
2022-08-20T13:15:17.530Z,98946.91
2022-08-20T13:17:45.252Z,98947.88
2022-08-20T13:20:15.528Z,98930.53
2022-08-20T13:22:43.173Z,98934.47
2022-08-20T13:25:11.734Z,98933.16
2022-08-20T13:27:40.655Z,98937.34
2022-08-20T13:30:09.594Z,98933.66
2022-08-20T13:32:36.901Z,98933.75
2022-08-20T13:35:04.054Z,98937.41
2022-08-20T13:37:31.855Z,98933.00
2022-08-20T13:39:59.305Z,98935.94
2022-08-20T13:42:27.732Z,98940.13
2022-08-20T13:44:55.724Z,98941.22
2022-08-20T13:47:29.253Z,98947.75
2022-08-20T13:50:17.249Z,98953.69
2022-08-20T13:52:44.856Z,98956.72
2022-08-20T13:55:16.337Z,98967.34
2022-08-20T13:57:44.134Z,98968.88
2022-08-20T14:00:26.383Z,98976.59
2022-08-20T14:02:55.202Z,98972.72
2022-08-20T14:05:22.659Z,98975.41
2022-08-20T14:07:50.163Z,98969.56
2022-08-20T14:10:26.584Z,98972.94
2022-08-20T14:12:57.114Z,98975.41
2022-08-20T14:15:27.888Z,98980.31
2022-08-20T14:17:56.459Z,98977.91
2022-08-20T14:20:29.146Z,98981.03
2022-08-20T14:22:57.021Z,98976.47
2022-08-20T14:25:24.923Z,98978.59
2022-08-20T14:27:52.673Z,98987.09
2022-08-20T14:30:25.355Z,98978.50
2022-08-20T14:32:53.197Z,98974.69
2022-08-20T14:35:20.354Z,98981.00
2022-08-20T14:37:50.410Z,98981.00
2022-08-20T14:40:18.376Z,98974.94
2022-08-20T14:42:47.732Z,98978.31
2022-08-20T14:45:19.736Z,98980.78
2022-08-20T14:47:55.720Z,98968.56
2022-08-20T14:50:31.523Z,98970.41
2022-08-20T14:52:59.274Z,98963.19
2022-08-20T14:55:30.262Z,98963.75
2022-08-20T14:57:57.618Z,98970.69
2022-08-20T15:00:30.593Z,98970.41
2022-08-20T15:02:57.926Z,98972.22
2022-08-20T15:05:25.200Z,98966.97
2022-08-20T15:07:54.064Z,98975.31
2022-08-20T15:10:32.176Z,98971.38
2022-08-20T15:12:59.593Z,98971.06
2022-08-20T15:15:26.601Z,98976.81
2022-08-20T15:17:55.711Z,98977.03
2022-08-20T15:20:25.978Z,98977.09
2022-08-20T15:22:53.436Z,98986.03
2022-08-20T15:25:24.723Z,98978.59
2022-08-20T15:28:01.526Z,98990.69
2022-08-20T15:30:30.588Z,98994.31
2022-08-20T15:32:57.719Z,98992.66
2022-08-20T15:35:26.617Z,98999.31
2022-08-20T15:37:55.327Z,99004.25
2022-08-20T15:40:27.882Z,98992.03
2022-08-20T15:42:56.460Z,99004.63
2022-08-20T15:45:23.661Z,98996.94
2022-08-20T15:47:56.133Z,99008.50
2022-08-20T15:51:08.757Z,99007.69
2022-08-20T15:53:46.379Z,99013.19
2022-08-20T15:56:47.196Z,99006.84
2022-08-20T15:59:49.472Z,99008.16
2022-08-20T16:02:53.698Z,99004.66
2022-08-20T16:05:29.317Z,99010.94
2022-08-20T16:08:13.893Z,99004.66
2022-08-20T16:11:04.986Z,99004.44
2022-08-20T16:13:40.635Z,99005.41
2022-08-20T16:16:17.511Z,98999.56
2022-08-20T16:18:47.961Z,98996.66
2022-08-20T16:21:17.724Z,99006.41
2022-08-20T16:23:45.185Z,99007.00
2022-08-20T16:27:07.534Z,99015.28
2022-08-20T16:29:47.584Z,99018.63
2022-08-20T16:32:38.306Z,99023.31
2022-08-20T16:35:29.022Z,99024.19
2022-08-20T16:38:13.534Z,99014.22
2022-08-20T16:40:57.477Z,99018.22
2022-08-20T16:43:35.769Z,99015.88
2022-08-20T16:46:06.616Z,99013.78
2022-08-20T16:48:40.657Z,99012.03
2022-08-20T16:51:20.264Z,99022.75
2022-08-20T16:53:47.170Z,99016.69
2022-08-20T16:56:13.925Z,99015.03
2022-08-20T16:58:45.530Z,99014.41
2022-08-20T17:01:14.227Z,99018.50
2022-08-20T17:03:50.508Z,99018.94
2022-08-20T17:06:36.919Z,99022.09
2022-08-20T17:09:15.190Z,99017.81
2022-08-20T17:11:48.259Z,99025.59
2022-08-20T17:14:18.373Z,99022.84
2022-08-20T17:16:51.850Z,99021.44
2022-08-20T17:19:30.879Z,99023.97
2022-08-20T17:22:11.040Z,99015.94
2022-08-20T17:24:38.297Z,99015.78
2022-08-20T17:27:15.596Z,99017.19
2022-08-20T17:29:52.464Z,99010.66
2022-08-20T17:32:28.343Z,99011.97
2022-08-20T17:34:58.312Z,99016.28
2022-08-20T17:37:33.509Z,99021.34
2022-08-20T17:40:16.130Z,99017.44
2022-08-20T17:42:57.478Z,99015.00
2022-08-20T17:45:46.084Z,99026.00
2022-08-20T17:48:20.873Z,99024.88
2022-08-20T17:50:47.756Z,99025.06
2022-08-20T17:53:23.418Z,99032.31
2022-08-20T17:55:54.141Z,99028.34
2022-08-20T17:58:21.613Z,99027.34
2022-08-20T18:00:48.872Z,99034.03
2022-08-20T18:03:24.368Z,99033.75
2022-08-20T18:06:02.159Z,99037.78
2022-08-20T18:08:39.994Z,99039.78
2022-08-20T18:11:39.496Z,99040.50
2022-08-20T18:14:37.140Z,99046.69
2022-08-20T18:17:41.855Z,99052.88
2022-08-20T18:20:56.720Z,99053.91
2022-08-20T18:23:28.910Z,99059.94
2022-08-20T18:26:03.852Z,99056.00
2022-08-20T18:28:38.722Z,99059.84
2022-08-20T18:31:10.822Z,99066.41
2022-08-20T18:33:46.328Z,99063.34
2022-08-20T18:36:28.167Z,99068.94
2022-08-20T18:39:05.523Z,99062.59
2022-08-20T18:41:56.753Z,99058.59
2022-08-20T18:44:44.102Z,99067.28
2022-08-20T18:47:45.137Z,99071.81
2022-08-20T18:50:46.774Z,99078.47
2022-08-20T18:53:20.959Z,99075.06
2022-08-20T18:56:01.645Z,99071.56
2022-08-20T18:59:10.398Z,99067.13
2022-08-20T19:01:39.017Z,99067.97
2022-08-20T19:04:30.129Z,99068.00
2022-08-20T19:07:03.819Z,99075.84
2022-08-20T19:09:53.107Z,99074.03
2022-08-20T19:12:38.571Z,99075.97
2022-08-20T19:15:08.724Z,99084.44
2022-08-20T19:17:44.272Z,99081.38
2022-08-20T19:20:18.738Z,99075.44
2022-08-20T19:22:47.791Z,99066.97
2022-08-20T19:25:30.951Z,99072.78
2022-08-20T19:28:00.081Z,99077.09
2022-08-20T19:30:39.712Z,99072.59
2022-08-20T19:33:08.701Z,99075.69
2022-08-20T19:35:38.646Z,99083.88
2022-08-20T19:38:16.377Z,99083.09
2022-08-20T19:40:46.166Z,99082.25
2022-08-20T19:43:17.473Z,99083.53
2022-08-20T19:45:48.478Z,99093.38
2022-08-20T19:48:49.477Z,99093.78
2022-08-20T19:51:27.853Z,99088.88
2022-08-20T19:53:55.119Z,99098.31
2022-08-20T19:56:24.777Z,99096.69
2022-08-20T19:59:06.996Z,99099.53
2022-08-20T20:01:34.774Z,99095.84
2022-08-20T20:04:05.891Z,99098.06
2022-08-20T20:06:38.375Z,99096.25
2022-08-20T20:09:14.328Z,99096.66
2022-08-20T20:11:46.768Z,99098.66
2022-08-20T20:14:21.244Z,99090.88
2022-08-20T20:16:49.415Z,99100.72
2022-08-20T20:19:26.200Z,99090.84
2022-08-20T20:22:19.704Z,99091.66
2022-08-20T20:24:57.758Z,99097.41
2022-08-20T20:27:27.110Z,99093.53
2022-08-20T20:30:08.867Z,99090.03
2022-08-20T20:32:40.395Z,99086.31
2022-08-20T20:35:07.727Z,99085.75
2022-08-20T20:37:49.600Z,99088.00
2022-08-20T20:40:33.971Z,99092.13
2022-08-20T20:43:08.968Z,99096.59
2022-08-20T20:45:40.652Z,99103.50
2022-08-20T20:48:26.409Z,99108.19
2022-08-20T20:50:56.299Z,99111.09
2022-08-20T20:53:47.297Z,99112.56
2022-08-20T20:56:34.666Z,99109.91
2022-08-20T20:59:06.509Z,99120.53
2022-08-20T21:01:49.972Z,99104.75
2022-08-20T21:04:22.332Z,99097.53
2022-08-20T21:06:50.980Z,99097.75
2022-08-20T21:09:19.350Z,99097.78
2022-08-20T21:11:46.688Z,99101.03
2022-08-20T21:14:13.872Z,99112.91
2022-08-20T21:16:40.851Z,99107.16
2022-08-20T21:19:12.444Z,99109.59
2022-08-20T21:21:41.260Z,99112.03
2022-08-20T21:24:09.094Z,99113.97
2022-08-20T21:26:36.832Z,99116.88
2022-08-20T21:29:06.512Z,99123.00
2022-08-20T21:31:37.352Z,99125.19
2022-08-20T21:34:04.219Z,99130.09
2022-08-20T21:36:31.454Z,99118.41
2022-08-20T21:38:58.792Z,99125.56
2022-08-20T21:41:30.044Z,99120.41
2022-08-20T21:43:59.213Z,99122.94
2022-08-20T21:46:29.019Z,99123.00
2022-08-20T21:48:56.650Z,99124.25
2022-08-20T21:51:23.955Z,99114.75
2022-08-20T21:53:52.087Z,99116.13
2022-08-20T21:56:19.459Z,99117.94
2022-08-20T21:58:47.901Z,99116.22
2022-08-20T22:01:15.645Z,99112.97
2022-08-20T22:03:44.500Z,99108.31
2022-08-20T22:06:16.539Z,99109.44
2022-08-20T22:08:43.605Z,99113.75
2022-08-20T22:11:16.567Z,99118.06
2022-08-20T22:13:44.105Z,99119.09
2022-08-20T22:16:13.361Z,99119.09
2022-08-20T22:18:41.228Z,99113.34
2022-08-20T22:21:11.919Z,99120.72
2022-08-20T22:23:40.401Z,99114.38
2022-08-20T22:26:08.561Z,99111.16
2022-08-20T22:28:35.777Z,99112.13
2022-08-20T22:31:03.039Z,99109.03
2022-08-20T22:33:31.460Z,99111.34
2022-08-20T22:35:58.820Z,99111.47
2022-08-20T22:38:26.227Z,99110.84
2022-08-20T22:40:54.402Z,99107.56
2022-08-20T22:43:22.376Z,99102.81
2022-08-20T22:45:50.901Z,99098.13
2022-08-20T22:48:19.609Z,99106.06
2022-08-20T22:50:46.979Z,99105.41
2022-08-20T22:53:14.676Z,99102.69
2022-08-20T22:55:41.487Z,99107.75
2022-08-20T22:58:11.175Z,99098.75
2022-08-20T23:00:39.057Z,99112.19
2022-08-20T23:03:06.294Z,99110.13
2022-08-20T23:05:34.915Z,99108.41
2022-08-20T23:08:02.494Z,99105.75
2022-08-20T23:10:30.873Z,99095.47
2022-08-20T23:12:58.045Z,99090.97
2022-08-20T23:15:27.036Z,99096.34
2022-08-20T23:18:03.652Z,99095.91
2022-08-20T23:20:30.908Z,99100.94
2022-08-20T23:22:57.950Z,99110.56
2022-08-20T23:25:25.068Z,99104.75
2022-08-20T23:28:03.502Z,99101.16
2022-08-20T23:30:32.464Z,99098.50
2022-08-20T23:33:01.755Z,99096.63
2022-08-20T23:35:29.881Z,99096.56
2022-08-20T23:38:00.295Z,99091.19
2022-08-20T23:40:28.613Z,99093.34
2022-08-20T23:42:56.393Z,99098.66
2022-08-20T23:45:23.896Z,99101.13
2022-08-20T23:47:51.649Z,99094.53
2022-08-20T23:50:21.940Z,99096.63
2022-08-20T23:52:51.902Z,99088.78
2022-08-20T23:55:19.777Z,99091.19
2022-08-20T23:57:46.772Z,99087.50
